sensor_id;sensor_type;location;lat;lon;timestamp;temperature;humidity
25963;DHT22;13760;52.588;13.406;2023-04-16T00:01:00;9.40;99.90
25963;DHT22;13760;52.588;13.406;2023-04-16T00:03:29;9.40;99.90
25963;DHT22;13760;52.588;13.406;2023-04-16T00:06:00;9.40;99.90
25963;DHT22;13760;52.588;13.406;2023-04-16T00:08:31;9.40;99.90
25963;DHT22;13760;52.588;13.406;2023-04-16T00:11:00;9.40;99.90
25963;DHT22;13760;52.588;13.406;2023-04-16T00:13:32;9.40;99.90
25963;DHT22;13760;52.588;13.406;2023-04-16T00:16:03;9.40;99.90
25963;DHT22;13760;52.588;13.406;2023-04-16T00:18:38;9.40;99.90
25963;DHT22;13760;52.588;13.406;2023-04-16T00:21:05;9.40;99.90
25963;DHT22;13760;52.588;13.406;2023-04-16T00:23:34;9.40;99.90
25963;DHT22;13760;52.588;13.406;2023-04-16T00:26:00;9.40;99.90
25963;DHT22;13760;52.588;13.406;2023-04-16T00:28:59;9.40;99.90
25963;DHT22;13760;52.588;13.406;2023-04-16T00:31:53;9.30;99.90
25963;DHT22;13760;52.588;13.406;2023-04-16T00:34:19;9.40;99.90
25963;DHT22;13760;52.588;13.406;2023-04-16T00:36:49;9.30;99.90
25963;DHT22;13760;52.588;13.406;2023-04-16T00:42:28;9.30;99.90
25963;DHT22;13760;52.588;13.406;2023-04-16T00:44:54;9.30;99.90
25963;DHT22;13760;52.588;13.406;2023-04-16T00:47:23;9.30;99.90
25963;DHT22;13760;52.588;13.406;2023-04-16T00:49:52;9.40;99.90
25963;DHT22;13760;52.588;13.406;2023-04-16T00:52:18;9.30;99.90
25963;DHT22;13760;52.588;13.406;2023-04-16T00:54:46;9.30;99.90
25963;DHT22;13760;52.588;13.406;2023-04-16T00:57:15;9.30;99.90
25963;DHT22;13760;52.588;13.406;2023-04-16T00:59:44;9.30;99.90
25963;DHT22;13760;52.588;13.406;2023-04-16T01:02:09;9.30;99.90
25963;DHT22;13760;52.588;13.406;2023-04-16T01:04:38;9.30;99.90
25963;DHT22;13760;52.588;13.406;2023-04-16T01:07:04;9.30;99.90
25963;DHT22;13760;52.588;13.406;2023-04-16T01:09:30;9.30;99.90
25963;DHT22;13760;52.588;13.406;2023-04-16T01:12:01;9.30;99.90
25963;DHT22;13760;52.588;13.406;2023-04-16T01:14:30;9.20;99.90
25963;DHT22;13760;52.588;13.406;2023-04-16T01:17:02;9.30;99.90
25963;DHT22;13760;52.588;13.406;2023-04-16T01:19:31;9.30;99.90
25963;DHT22;13760;52.588;13.406;2023-04-16T01:22:01;9.20;99.90
25963;DHT22;13760;52.588;13.406;2023-04-16T01:24:26;9.20;99.90
25963;DHT22;13760;52.588;13.406;2023-04-16T01:26:52;9.30;99.90
25963;DHT22;13760;52.588;13.406;2023-04-16T01:29:18;9.20;99.90
25963;DHT22;13760;52.588;13.406;2023-04-16T01:31:53;9.20;99.90
25963;DHT22;13760;52.588;13.406;2023-04-16T01:34:18;9.20;99.90
25963;DHT22;13760;52.588;13.406;2023-04-16T01:36:44;9.20;99.90
25963;DHT22;13760;52.588;13.406;2023-04-16T01:39:12;9.20;99.90
25963;DHT22;13760;52.588;13.406;2023-04-16T01:41:41;9.20;99.90
25963;DHT22;13760;52.588;13.406;2023-04-16T01:44:08;9.20;99.90
25963;DHT22;13760;52.588;13.406;2023-04-16T01:46:34;9.20;99.90
25963;DHT22;13760;52.588;13.406;2023-04-16T01:49:00;9.20;99.90
25963;DHT22;13760;52.588;13.406;2023-04-16T01:51:27;9.20;99.90
25963;DHT22;13760;52.588;13.406;2023-04-16T01:53:53;9.20;99.90
25963;DHT22;13760;52.588;13.406;2023-04-16T01:56:22;9.20;99.90
25963;DHT22;13760;52.588;13.406;2023-04-16T01:58:48;9.20;99.90
25963;DHT22;13760;52.588;13.406;2023-04-16T02:01:16;9.20;99.90
25963;DHT22;13760;52.588;13.406;2023-04-16T02:03:46;9.20;99.90
25963;DHT22;13760;52.588;13.406;2023-04-16T02:06:11;9.20;99.90
25963;DHT22;13760;52.588;13.406;2023-04-16T02:08:37;9.20;99.90
25963;DHT22;13760;52.588;13.406;2023-04-16T02:11:03;9.10;99.90
25963;DHT22;13760;52.588;13.406;2023-04-16T02:13:29;9.10;99.90
25963;DHT22;13760;52.588;13.406;2023-04-16T02:15:54;9.10;99.90
25963;DHT22;13760;52.588;13.406;2023-04-16T02:18:20;9.10;99.90
25963;DHT22;13760;52.588;13.406;2023-04-16T02:20:46;9.10;99.90
25963;DHT22;13760;52.588;13.406;2023-04-16T02:23:14;9.10;99.90
25963;DHT22;13760;52.588;13.406;2023-04-16T02:25:44;9.10;99.90
25963;DHT22;13760;52.588;13.406;2023-04-16T02:28:12;9.10;99.90
25963;DHT22;13760;52.588;13.406;2023-04-16T02:30:42;9.10;99.90
25963;DHT22;13760;52.588;13.406;2023-04-16T02:33:09;9.00;99.90
25963;DHT22;13760;52.588;13.406;2023-04-16T02:35:36;9.00;99.90
25963;DHT22;13760;52.588;13.406;2023-04-16T02:38:03;9.00;99.90
25963;DHT22;13760;52.588;13.406;2023-04-16T02:40:29;9.00;99.90
25963;DHT22;13760;52.588;13.406;2023-04-16T02:42:55;9.00;99.90
25963;DHT22;13760;52.588;13.406;2023-04-16T02:45:21;9.00;99.90
25963;DHT22;13760;52.588;13.406;2023-04-16T02:47:47;9.00;99.90
25963;DHT22;13760;52.588;13.406;2023-04-16T02:50:13;9.00;99.90
25963;DHT22;13760;52.588;13.406;2023-04-16T02:52:47;9.00;99.90
25963;DHT22;13760;52.588;13.406;2023-04-16T02:55:13;9.00;99.90
25963;DHT22;13760;52.588;13.406;2023-04-16T02:57:39;8.90;99.90
25963;DHT22;13760;52.588;13.406;2023-04-16T03:00:07;8.90;99.90
25963;DHT22;13760;52.588;13.406;2023-04-16T03:02:33;8.90;99.90
25963;DHT22;13760;52.588;13.406;2023-04-16T03:04:58;8.90;99.90
25963;DHT22;13760;52.588;13.406;2023-04-16T03:07:24;8.80;99.90
25963;DHT22;13760;52.588;13.406;2023-04-16T03:09:50;8.90;99.90
25963;DHT22;13760;52.588;13.406;2023-04-16T03:12:16;8.80;99.90
25963;DHT22;13760;52.588;13.406;2023-04-16T03:14:41;8.90;99.90
25963;DHT22;13760;52.588;13.406;2023-04-16T03:17:07;8.80;99.90
25963;DHT22;13760;52.588;13.406;2023-04-16T03:19:33;8.90;99.90
25963;DHT22;13760;52.588;13.406;2023-04-16T03:21:58;8.90;99.90
25963;DHT22;13760;52.588;13.406;2023-04-16T03:24:24;8.80;99.90
25963;DHT22;13760;52.588;13.406;2023-04-16T03:26:50;8.80;99.90
25963;DHT22;13760;52.588;13.406;2023-04-16T03:29:16;8.80;99.90
25963;DHT22;13760;52.588;13.406;2023-04-16T03:31:41;8.70;99.90
25963;DHT22;13760;52.588;13.406;2023-04-16T03:34:07;8.70;99.90
25963;DHT22;13760;52.588;13.406;2023-04-16T03:36:32;8.70;99.90
25963;DHT22;13760;52.588;13.406;2023-04-16T03:38:58;8.70;99.90
25963;DHT22;13760;52.588;13.406;2023-04-16T03:41:24;8.70;99.90
25963;DHT22;13760;52.588;13.406;2023-04-16T03:43:49;8.60;99.90
25963;DHT22;13760;52.588;13.406;2023-04-16T03:46:15;8.60;99.90
25963;DHT22;13760;52.588;13.406;2023-04-16T03:48:43;8.60;99.90
25963;DHT22;13760;52.588;13.406;2023-04-16T03:51:09;8.60;99.90
25963;DHT22;13760;52.588;13.406;2023-04-16T03:53:34;8.60;99.90
25963;DHT22;13760;52.588;13.406;2023-04-16T03:56:00;8.60;99.90
25963;DHT22;13760;52.588;13.406;2023-04-16T03:58:26;8.50;99.90
25963;DHT22;13760;52.588;13.406;2023-04-16T04:00:54;8.60;99.90
25963;DHT22;13760;52.588;13.406;2023-04-16T04:03:20;8.60;99.90
25963;DHT22;13760;52.588;13.406;2023-04-16T04:05:45;8.60;99.90
25963;DHT22;13760;52.588;13.406;2023-04-16T04:08:11;8.60;99.90
25963;DHT22;13760;52.588;13.406;2023-04-16T04:10:37;8.60;99.90
25963;DHT22;13760;52.588;13.406;2023-04-16T04:13:04;8.50;99.90
25963;DHT22;13760;52.588;13.406;2023-04-16T04:15:30;8.50;99.90
25963;DHT22;13760;52.588;13.406;2023-04-16T04:17:56;8.60;99.90
25963;DHT22;13760;52.588;13.406;2023-04-16T04:20:22;8.60;99.90
25963;DHT22;13760;52.588;13.406;2023-04-16T04:22:49;8.60;99.90
25963;DHT22;13760;52.588;13.406;2023-04-16T04:25:16;8.60;99.90
25963;DHT22;13760;52.588;13.406;2023-04-16T04:27:44;8.50;99.90
25963;DHT22;13760;52.588;13.406;2023-04-16T04:30:10;8.50;99.90
25963;DHT22;13760;52.588;13.406;2023-04-16T04:32:36;8.50;99.90
25963;DHT22;13760;52.588;13.406;2023-04-16T04:35:02;8.50;99.90
25963;DHT22;13760;52.588;13.406;2023-04-16T04:37:28;8.50;99.90
25963;DHT22;13760;52.588;13.406;2023-04-16T04:39:54;8.50;99.90
25963;DHT22;13760;52.588;13.406;2023-04-16T04:42:23;8.50;99.90
25963;DHT22;13760;52.588;13.406;2023-04-16T04:44:49;8.50;99.90
25963;DHT22;13760;52.588;13.406;2023-04-16T04:47:15;8.50;99.90
25963;DHT22;13760;52.588;13.406;2023-04-16T04:49:40;8.50;99.90
25963;DHT22;13760;52.588;13.406;2023-04-16T04:52:09;8.50;99.90
25963;DHT22;13760;52.588;13.406;2023-04-16T04:54:35;8.50;99.90
25963;DHT22;13760;52.588;13.406;2023-04-16T04:57:01;8.50;99.90
25963;DHT22;13760;52.588;13.406;2023-04-16T04:59:27;8.50;99.90
25963;DHT22;13760;52.588;13.406;2023-04-16T05:01:52;8.50;99.90
25963;DHT22;13760;52.588;13.406;2023-04-16T05:04:18;8.50;99.90
25963;DHT22;13760;52.588;13.406;2023-04-16T05:06:44;8.50;99.90
25963;DHT22;13760;52.588;13.406;2023-04-16T05:09:10;8.50;99.90
25963;DHT22;13760;52.588;13.406;2023-04-16T05:11:40;8.50;99.90
25963;DHT22;13760;52.588;13.406;2023-04-16T05:14:06;8.50;99.90
25963;DHT22;13760;52.588;13.406;2023-04-16T05:16:34;8.50;99.90
25963;DHT22;13760;52.588;13.406;2023-04-16T05:19:00;8.50;99.90
25963;DHT22;13760;52.588;13.406;2023-04-16T05:21:26;8.50;99.90
25963;DHT22;13760;52.588;13.406;2023-04-16T05:23:52;8.50;99.90
25963;DHT22;13760;52.588;13.406;2023-04-16T05:26:18;8.50;99.90
25963;DHT22;13760;52.588;13.406;2023-04-16T05:28:43;8.50;99.90
25963;DHT22;13760;52.588;13.406;2023-04-16T05:31:09;8.50;99.90
25963;DHT22;13760;52.588;13.406;2023-04-16T05:33:37;8.50;99.90
25963;DHT22;13760;52.588;13.406;2023-04-16T05:36:03;8.50;99.90
25963;DHT22;13760;52.588;13.406;2023-04-16T05:38:29;8.50;99.90
25963;DHT22;13760;52.588;13.406;2023-04-16T05:40:58;8.50;99.90
25963;DHT22;13760;52.588;13.406;2023-04-16T05:43:23;8.50;99.90
25963;DHT22;13760;52.588;13.406;2023-04-16T05:45:52;8.50;99.90
25963;DHT22;13760;52.588;13.406;2023-04-16T05:48:17;8.60;99.90
25963;DHT22;13760;52.588;13.406;2023-04-16T05:50:44;8.50;99.90
25963;DHT22;13760;52.588;13.406;2023-04-16T05:53:10;8.50;99.90
25963;DHT22;13760;52.588;13.406;2023-04-16T05:55:41;8.60;99.90
25963;DHT22;13760;52.588;13.406;2023-04-16T05:58:06;8.60;99.90
25963;DHT22;13760;52.588;13.406;2023-04-16T06:00:33;8.60;99.90
25963;DHT22;13760;52.588;13.406;2023-04-16T06:02:58;8.60;99.90
25963;DHT22;13760;52.588;13.406;2023-04-16T06:05:28;8.70;99.90
25963;DHT22;13760;52.588;13.406;2023-04-16T06:07:59;8.70;99.90
25963;DHT22;13760;52.588;13.406;2023-04-16T06:10:25;8.70;99.90
25963;DHT22;13760;52.588;13.406;2023-04-16T06:12:54;8.70;99.90
25963;DHT22;13760;52.588;13.406;2023-04-16T06:15:22;8.70;99.90
25963;DHT22;13760;52.588;13.406;2023-04-16T06:17:48;8.70;99.90
25963;DHT22;13760;52.588;13.406;2023-04-16T06:20:14;8.70;99.90
25963;DHT22;13760;52.588;13.406;2023-04-16T06:22:40;8.70;99.90
25963;DHT22;13760;52.588;13.406;2023-04-16T06:25:05;8.80;99.90
25963;DHT22;13760;52.588;13.406;2023-04-16T06:27:34;8.80;99.90
25963;DHT22;13760;52.588;13.406;2023-04-16T06:29:59;8.80;99.90
25963;DHT22;13760;52.588;13.406;2023-04-16T06:32:25;8.80;99.90
25963;DHT22;13760;52.588;13.406;2023-04-16T06:34:51;8.80;99.90
25963;DHT22;13760;52.588;13.406;2023-04-16T06:37:16;8.80;99.90
25963;DHT22;13760;52.588;13.406;2023-04-16T06:39:42;8.80;99.90
25963;DHT22;13760;52.588;13.406;2023-04-16T06:42:08;8.80;99.90
25963;DHT22;13760;52.588;13.406;2023-04-16T06:44:34;8.90;99.90
25963;DHT22;13760;52.588;13.406;2023-04-16T06:47:00;8.90;99.90
25963;DHT22;13760;52.588;13.406;2023-04-16T06:49:26;8.80;99.90
25963;DHT22;13760;52.588;13.406;2023-04-16T06:51:52;8.80;99.90
25963;DHT22;13760;52.588;13.406;2023-04-16T06:54:20;8.80;99.90
25963;DHT22;13760;52.588;13.406;2023-04-16T06:56:48;8.80;99.90
25963;DHT22;13760;52.588;13.406;2023-04-16T06:59:14;8.80;99.90
25963;DHT22;13760;52.588;13.406;2023-04-16T07:02:03;8.90;99.90
25963;DHT22;13760;52.588;13.406;2023-04-16T07:08:04;8.90;99.90
25963;DHT22;13760;52.588;13.406;2023-04-16T07:11:17;8.90;99.90
25963;DHT22;13760;52.588;13.406;2023-04-16T07:17:07;8.90;99.90
25963;DHT22;13760;52.588;13.406;2023-04-16T07:19:53;8.90;99.90
25963;DHT22;13760;52.588;13.406;2023-04-16T07:22:25;8.90;99.90
25963;DHT22;13760;52.588;13.406;2023-04-16T07:24:51;8.90;99.90
25963;DHT22;13760;52.588;13.406;2023-04-16T07:27:16;8.90;99.90
25963;DHT22;13760;52.588;13.406;2023-04-16T07:29:45;9.00;99.90
25963;DHT22;13760;52.588;13.406;2023-04-16T07:32:11;9.00;99.90
25963;DHT22;13760;52.588;13.406;2023-04-16T07:34:37;9.00;99.90
25963;DHT22;13760;52.588;13.406;2023-04-16T07:37:03;8.90;99.90
25963;DHT22;13760;52.588;13.406;2023-04-16T07:39:28;8.90;99.90
25963;DHT22;13760;52.588;13.406;2023-04-16T07:41:54;8.90;99.90
25963;DHT22;13760;52.588;13.406;2023-04-16T07:44:19;8.90;99.90
25963;DHT22;13760;52.588;13.406;2023-04-16T07:46:45;8.90;99.90
25963;DHT22;13760;52.588;13.406;2023-04-16T07:49:13;8.90;99.90
25963;DHT22;13760;52.588;13.406;2023-04-16T07:51:39;8.90;99.90
25963;DHT22;13760;52.588;13.406;2023-04-16T07:54:05;8.90;99.90
25963;DHT22;13760;52.588;13.406;2023-04-16T07:56:31;9.00;99.90
25963;DHT22;13760;52.588;13.406;2023-04-16T07:58:59;9.00;99.90
25963;DHT22;13760;52.588;13.406;2023-04-16T08:01:25;9.00;99.90
25963;DHT22;13760;52.588;13.406;2023-04-16T08:03:51;9.00;99.90
25963;DHT22;13760;52.588;13.406;2023-04-16T08:06:17;9.00;99.90
25963;DHT22;13760;52.588;13.406;2023-04-16T08:08:45;9.00;99.90
25963;DHT22;13760;52.588;13.406;2023-04-16T08:11:11;9.00;99.90
25963;DHT22;13760;52.588;13.406;2023-04-16T08:13:40;9.00;99.90
25963;DHT22;13760;52.588;13.406;2023-04-16T08:16:08;9.00;99.90
25963;DHT22;13760;52.588;13.406;2023-04-16T08:18:34;9.00;99.90
25963;DHT22;13760;52.588;13.406;2023-04-16T08:21:02;9.00;99.90
25963;DHT22;13760;52.588;13.406;2023-04-16T08:23:28;9.00;99.90
25963;DHT22;13760;52.588;13.406;2023-04-16T08:25:54;9.00;99.90
25963;DHT22;13760;52.588;13.406;2023-04-16T08:28:19;9.00;99.90
25963;DHT22;13760;52.588;13.406;2023-04-16T08:30:48;9.00;99.90
25963;DHT22;13760;52.588;13.406;2023-04-16T08:33:18;9.00;99.90
25963;DHT22;13760;52.588;13.406;2023-04-16T08:35:47;9.00;99.90
25963;DHT22;13760;52.588;13.406;2023-04-16T08:38:12;9.10;99.90
25963;DHT22;13760;52.588;13.406;2023-04-16T08:40:39;9.10;99.90
25963;DHT22;13760;52.588;13.406;2023-04-16T08:43:09;9.00;99.90
25963;DHT22;13760;52.588;13.406;2023-04-16T08:45:40;9.00;99.90
25963;DHT22;13760;52.588;13.406;2023-04-16T08:48:07;9.10;99.90
25963;DHT22;13760;52.588;13.406;2023-04-16T08:50:32;9.10;99.90
25963;DHT22;13760;52.588;13.406;2023-04-16T08:53:03;9.20;99.90
25963;DHT22;13760;52.588;13.406;2023-04-16T08:55:34;9.20;99.90
25963;DHT22;13760;52.588;13.406;2023-04-16T08:58:00;9.30;99.90
25963;DHT22;13760;52.588;13.406;2023-04-16T09:00:30;9.40;99.90
25963;DHT22;13760;52.588;13.406;2023-04-16T09:02:57;9.50;99.90
25963;DHT22;13760;52.588;13.406;2023-04-16T09:05:24;9.50;99.90
25963;DHT22;13760;52.588;13.406;2023-04-16T09:07:51;9.50;99.90
25963;DHT22;13760;52.588;13.406;2023-04-16T09:10:18;9.50;99.90
25963;DHT22;13760;52.588;13.406;2023-04-16T09:12:44;9.60;99.90
25963;DHT22;13760;52.588;13.406;2023-04-16T09:15:11;9.60;99.90
25963;DHT22;13760;52.588;13.406;2023-04-16T09:17:37;9.50;99.90
25963;DHT22;13760;52.588;13.406;2023-04-16T09:20:08;9.40;99.90
25963;DHT22;13760;52.588;13.406;2023-04-16T09:22:35;9.40;99.90
25963;DHT22;13760;52.588;13.406;2023-04-16T09:25:01;9.40;99.90
25963;DHT22;13760;52.588;13.406;2023-04-16T09:27:27;9.40;99.90
25963;DHT22;13760;52.588;13.406;2023-04-16T09:29:58;9.40;99.90
25963;DHT22;13760;52.588;13.406;2023-04-16T09:32:25;9.50;99.90
25963;DHT22;13760;52.588;13.406;2023-04-16T09:37:19;9.40;99.90
25963;DHT22;13760;52.588;13.406;2023-04-16T09:40:22;9.40;99.90
25963;DHT22;13760;52.588;13.406;2023-04-16T09:42:56;9.40;99.90
25963;DHT22;13760;52.588;13.406;2023-04-16T09:45:50;9.40;99.90
25963;DHT22;13760;52.588;13.406;2023-04-16T09:48:53;9.40;99.90
25963;DHT22;13760;52.588;13.406;2023-04-16T09:51:23;9.40;99.90
25963;DHT22;13760;52.588;13.406;2023-04-16T09:53:51;9.40;99.90
25963;DHT22;13760;52.588;13.406;2023-04-16T09:56:23;9.40;99.90
25963;DHT22;13760;52.588;13.406;2023-04-16T09:58:56;9.50;99.90
25963;DHT22;13760;52.588;13.406;2023-04-16T10:01:27;9.60;99.90
25963;DHT22;13760;52.588;13.406;2023-04-16T10:03:55;9.60;99.90
25963;DHT22;13760;52.588;13.406;2023-04-16T10:06:32;9.70;99.90
25963;DHT22;13760;52.588;13.406;2023-04-16T10:08:57;9.60;99.90
25963;DHT22;13760;52.588;13.406;2023-04-16T10:11:32;9.60;99.90
25963;DHT22;13760;52.588;13.406;2023-04-16T10:13:59;9.60;99.90
25963;DHT22;13760;52.588;13.406;2023-04-16T10:16:26;9.60;99.90
25963;DHT22;13760;52.588;13.406;2023-04-16T10:18:52;9.70;99.90
25963;DHT22;13760;52.588;13.406;2023-04-16T10:21:21;9.80;99.90
25963;DHT22;13760;52.588;13.406;2023-04-16T10:23:47;9.80;99.90
25963;DHT22;13760;52.588;13.406;2023-04-16T10:26:14;9.80;99.90
25963;DHT22;13760;52.588;13.406;2023-04-16T10:28:43;9.80;99.90
25963;DHT22;13760;52.588;13.406;2023-04-16T10:31:12;9.70;99.90
25963;DHT22;13760;52.588;13.406;2023-04-16T10:33:40;9.80;99.90
25963;DHT22;13760;52.588;13.406;2023-04-16T10:36:13;9.80;99.90
25963;DHT22;13760;52.588;13.406;2023-04-16T10:38:43;10.00;99.90
25963;DHT22;13760;52.588;13.406;2023-04-16T10:41:09;10.00;99.90
25963;DHT22;13760;52.588;13.406;2023-04-16T10:43:41;10.10;99.90
25963;DHT22;13760;52.588;13.406;2023-04-16T10:46:30;10.10;99.90
25963;DHT22;13760;52.588;13.406;2023-04-16T10:48:59;10.10;99.90
25963;DHT22;13760;52.588;13.406;2023-04-16T10:51:34;10.20;99.90
25963;DHT22;13760;52.588;13.406;2023-04-16T10:56:39;10.40;99.90
25963;DHT22;13760;52.588;13.406;2023-04-16T10:59:09;10.40;99.90
25963;DHT22;13760;52.588;13.406;2023-04-16T11:01:37;10.50;99.90
25963;DHT22;13760;52.588;13.406;2023-04-16T11:04:36;10.50;99.90
25963;DHT22;13760;52.588;13.406;2023-04-16T11:10:20;10.60;99.90
25963;DHT22;13760;52.588;13.406;2023-04-16T11:12:46;10.50;99.90
25963;DHT22;13760;52.588;13.406;2023-04-16T11:15:14;10.40;99.90
25963;DHT22;13760;52.588;13.406;2023-04-16T11:17:47;10.30;99.90
25963;DHT22;13760;52.588;13.406;2023-04-16T11:20:24;10.30;99.90
25963;DHT22;13760;52.588;13.406;2023-04-16T11:22:51;10.30;99.90
25963;DHT22;13760;52.588;13.406;2023-04-16T11:25:21;10.30;99.90
25963;DHT22;13760;52.588;13.406;2023-04-16T11:27:54;10.30;99.90
25963;DHT22;13760;52.588;13.406;2023-04-16T11:30:47;10.40;99.90
25963;DHT22;13760;52.588;13.406;2023-04-16T11:33:32;10.40;99.90
25963;DHT22;13760;52.588;13.406;2023-04-16T11:36:25;10.40;99.90
25963;DHT22;13760;52.588;13.406;2023-04-16T11:42:22;10.30;99.90
25963;DHT22;13760;52.588;13.406;2023-04-16T11:44:52;10.30;99.90
25963;DHT22;13760;52.588;13.406;2023-04-16T11:47:22;10.30;99.90
25963;DHT22;13760;52.588;13.406;2023-04-16T11:49:52;10.20;99.90
25963;DHT22;13760;52.588;13.406;2023-04-16T11:52:32;10.20;99.90
25963;DHT22;13760;52.588;13.406;2023-04-16T11:55:13;10.20;99.90
25963;DHT22;13760;52.588;13.406;2023-04-16T11:58:11;10.20;99.90
25963;DHT22;13760;52.588;13.406;2023-04-16T12:00:39;10.20;99.90
25963;DHT22;13760;52.588;13.406;2023-04-16T12:03:09;10.10;99.90
25963;DHT22;13760;52.588;13.406;2023-04-16T12:05:36;10.10;99.90
25963;DHT22;13760;52.588;13.406;2023-04-16T12:08:27;10.10;99.90
25963;DHT22;13760;52.588;13.406;2023-04-16T12:10:54;10.00;99.90
25963;DHT22;13760;52.588;13.406;2023-04-16T12:13:20;10.00;99.90
25963;DHT22;13760;52.588;13.406;2023-04-16T12:15:54;10.00;99.90
25963;DHT22;13760;52.588;13.406;2023-04-16T12:18:22;9.90;99.90
25963;DHT22;13760;52.588;13.406;2023-04-16T12:20:48;9.80;99.90
25963;DHT22;13760;52.588;13.406;2023-04-16T12:23:33;9.80;99.90
25963;DHT22;13760;52.588;13.406;2023-04-16T12:26:06;9.90;99.90
25963;DHT22;13760;52.588;13.406;2023-04-16T12:28:35;9.90;99.90
25963;DHT22;13760;52.588;13.406;2023-04-16T12:31:03;9.90;99.90
25963;DHT22;13760;52.588;13.406;2023-04-16T12:33:29;9.90;99.90
25963;DHT22;13760;52.588;13.406;2023-04-16T12:35:55;9.90;99.90
25963;DHT22;13760;52.588;13.406;2023-04-16T12:38:23;9.90;99.90
25963;DHT22;13760;52.588;13.406;2023-04-16T12:40:51;9.90;99.90
25963;DHT22;13760;52.588;13.406;2023-04-16T12:43:16;9.80;99.90
25963;DHT22;13760;52.588;13.406;2023-04-16T12:45:42;9.80;99.90
25963;DHT22;13760;52.588;13.406;2023-04-16T12:48:08;9.80;99.90
25963;DHT22;13760;52.588;13.406;2023-04-16T12:50:34;9.70;99.90
25963;DHT22;13760;52.588;13.406;2023-04-16T12:53:03;9.70;99.90
25963;DHT22;13760;52.588;13.406;2023-04-16T12:55:39;9.70;99.90
25963;DHT22;13760;52.588;13.406;2023-04-16T12:58:05;9.70;99.90
25963;DHT22;13760;52.588;13.406;2023-04-16T13:00:37;9.70;99.90
25963;DHT22;13760;52.588;13.406;2023-04-16T13:03:03;9.70;99.90
25963;DHT22;13760;52.588;13.406;2023-04-16T13:05:28;9.70;99.90
25963;DHT22;13760;52.588;13.406;2023-04-16T13:07:54;9.80;99.90
25963;DHT22;13760;52.588;13.406;2023-04-16T13:10:21;9.70;99.90
25963;DHT22;13760;52.588;13.406;2023-04-16T13:12:51;9.70;99.90
25963;DHT22;13760;52.588;13.406;2023-04-16T13:15:16;9.80;99.90
25963;DHT22;13760;52.588;13.406;2023-04-16T13:17:45;9.80;99.90
25963;DHT22;13760;52.588;13.406;2023-04-16T13:20:13;9.80;99.90
25963;DHT22;13760;52.588;13.406;2023-04-16T13:22:39;9.80;99.90
25963;DHT22;13760;52.588;13.406;2023-04-16T13:25:05;9.80;99.90
25963;DHT22;13760;52.588;13.406;2023-04-16T13:27:31;9.90;99.90
25963;DHT22;13760;52.588;13.406;2023-04-16T13:29:57;10.00;99.90
25963;DHT22;13760;52.588;13.406;2023-04-16T13:32:23;10.10;99.90
25963;DHT22;13760;52.588;13.406;2023-04-16T13:34:48;10.10;99.90
25963;DHT22;13760;52.588;13.406;2023-04-16T13:37:17;10.10;99.90
25963;DHT22;13760;52.588;13.406;2023-04-16T13:39:42;10.10;99.90
25963;DHT22;13760;52.588;13.406;2023-04-16T13:42:09;10.20;99.90
25963;DHT22;13760;52.588;13.406;2023-04-16T13:44:38;10.20;99.90
25963;DHT22;13760;52.588;13.406;2023-04-16T13:47:03;10.30;99.90
25963;DHT22;13760;52.588;13.406;2023-04-16T13:49:32;10.40;99.90
25963;DHT22;13760;52.588;13.406;2023-04-16T13:51:59;10.40;99.90
25963;DHT22;13760;52.588;13.406;2023-04-16T13:54:25;10.40;99.90
25963;DHT22;13760;52.588;13.406;2023-04-16T13:56:55;10.40;99.90
25963;DHT22;13760;52.588;13.406;2023-04-16T13:59:20;10.40;99.90
25963;DHT22;13760;52.588;13.406;2023-04-16T14:01:49;10.40;99.90
25963;DHT22;13760;52.588;13.406;2023-04-16T14:07:15;10.40;99.90
25963;DHT22;13760;52.588;13.406;2023-04-16T14:09:47;10.50;99.90
25963;DHT22;13760;52.588;13.406;2023-04-16T14:12:21;10.50;99.90
25963;DHT22;13760;52.588;13.406;2023-04-16T14:14:58;10.50;99.90
25963;DHT22;13760;52.588;13.406;2023-04-16T14:17:32;10.50;99.90
25963;DHT22;13760;52.588;13.406;2023-04-16T14:19:58;10.40;99.90
25963;DHT22;13760;52.588;13.406;2023-04-16T14:22:23;10.50;99.90
25963;DHT22;13760;52.588;13.406;2023-04-16T14:24:52;10.40;99.90
25963;DHT22;13760;52.588;13.406;2023-04-16T14:27:21;10.40;99.90
25963;DHT22;13760;52.588;13.406;2023-04-16T14:29:53;10.50;99.90
25963;DHT22;13760;52.588;13.406;2023-04-16T14:32:28;10.40;99.90
25963;DHT22;13760;52.588;13.406;2023-04-16T14:34:57;10.40;99.90
25963;DHT22;13760;52.588;13.406;2023-04-16T14:37:23;10.40;99.90
25963;DHT22;13760;52.588;13.406;2023-04-16T14:39:52;10.40;99.90
25963;DHT22;13760;52.588;13.406;2023-04-16T14:42:18;10.30;99.90
25963;DHT22;13760;52.588;13.406;2023-04-16T14:47:49;10.30;99.90
25963;DHT22;13760;52.588;13.406;2023-04-16T14:50:33;10.30;99.90
25963;DHT22;13760;52.588;13.406;2023-04-16T14:53:03;10.20;99.90
25963;DHT22;13760;52.588;13.406;2023-04-16T14:55:29;10.20;99.90
25963;DHT22;13760;52.588;13.406;2023-04-16T14:57:58;10.20;99.90
25963;DHT22;13760;52.588;13.406;2023-04-16T15:00:33;10.20;99.90
25963;DHT22;13760;52.588;13.406;2023-04-16T15:03:08;10.20;99.90
25963;DHT22;13760;52.588;13.406;2023-04-16T15:05:34;10.10;99.90
25963;DHT22;13760;52.588;13.406;2023-04-16T15:08:00;10.10;99.90
25963;DHT22;13760;52.588;13.406;2023-04-16T15:10:26;10.10;99.90
25963;DHT22;13760;52.588;13.406;2023-04-16T15:12:52;10.10;99.90
25963;DHT22;13760;52.588;13.406;2023-04-16T15:15:18;10.10;99.90
25963;DHT22;13760;52.588;13.406;2023-04-16T15:17:46;10.10;99.90
25963;DHT22;13760;52.588;13.406;2023-04-16T15:20:15;10.10;99.90
25963;DHT22;13760;52.588;13.406;2023-04-16T15:22:41;10.10;99.90
25963;DHT22;13760;52.588;13.406;2023-04-16T15:25:07;10.10;99.90
25963;DHT22;13760;52.588;13.406;2023-04-16T15:27:35;10.10;99.90
25963;DHT22;13760;52.588;13.406;2023-04-16T15:30:01;10.10;99.90
25963;DHT22;13760;52.588;13.406;2023-04-16T15:32:27;10.10;99.90
25963;DHT22;13760;52.588;13.406;2023-04-16T15:34:53;10.10;99.90
25963;DHT22;13760;52.588;13.406;2023-04-16T15:37:19;10.10;99.90
25963;DHT22;13760;52.588;13.406;2023-04-16T15:39:50;10.10;99.90
25963;DHT22;13760;52.588;13.406;2023-04-16T15:42:16;10.10;99.90
25963;DHT22;13760;52.588;13.406;2023-04-16T15:44:51;10.10;99.90
25963;DHT22;13760;52.588;13.406;2023-04-16T15:47:22;10.10;99.90
25963;DHT22;13760;52.588;13.406;2023-04-16T15:52:57;10.10;99.90
25963;DHT22;13760;52.588;13.406;2023-04-16T15:55:32;10.10;99.90
25963;DHT22;13760;52.588;13.406;2023-04-16T15:58:01;10.00;99.90
25963;DHT22;13760;52.588;13.406;2023-04-16T16:00:35;10.10;99.90
25963;DHT22;13760;52.588;13.406;2023-04-16T16:03:07;10.00;99.90
25963;DHT22;13760;52.588;13.406;2023-04-16T16:05:50;10.00;99.90
25963;DHT22;13760;52.588;13.406;2023-04-16T16:08:19;10.00;99.90